createdAt,value
2018-06-23T00:00:54.938Z,3.10
2018-06-23T00:03:23.426Z,3.63
2018-06-23T00:05:51.984Z,3.77
2018-06-23T00:08:20.476Z,3.30
2018-06-23T00:10:49.052Z,4.30
2018-06-23T00:13:17.531Z,5.00
2018-06-23T00:15:46.144Z,5.50
2018-06-23T00:18:14.633Z,4.50
2018-06-23T00:20:43.242Z,5.33
2018-06-23T00:24:40.923Z,4.50
2018-06-23T00:27:09.407Z,3.67
2018-06-23T00:29:37.936Z,3.93
2018-06-23T00:32:06.382Z,3.47
2018-06-23T00:34:34.837Z,2.70
2018-06-23T00:37:03.286Z,3.30
2018-06-23T00:39:31.780Z,3.20
2018-06-23T00:42:00.987Z,3.03
2018-06-23T00:44:29.471Z,2.60
2018-06-23T00:46:57.935Z,3.13
2018-06-23T00:49:26.626Z,3.73
2018-06-23T00:51:55.091Z,3.37
2018-06-23T00:54:23.648Z,3.13
2018-06-23T00:56:52.131Z,3.50
2018-06-23T00:59:31.842Z,3.97
2018-06-23T01:02:00.412Z,3.57
2018-06-23T01:04:28.927Z,3.97
2018-06-23T01:06:57.436Z,3.33
2018-06-23T01:09:25.990Z,3.47
2018-06-23T01:11:54.476Z,3.43
2018-06-23T01:14:22.935Z,3.30
2018-06-23T01:16:51.429Z,3.30
2018-06-23T01:19:19.890Z,3.67
2018-06-23T01:21:48.428Z,3.63
2018-06-23T01:24:16.903Z,3.50
2018-06-23T01:26:45.370Z,3.87
2018-06-23T01:29:13.819Z,3.43
2018-06-23T01:31:42.301Z,3.43
2018-06-23T01:34:10.758Z,3.77
2018-06-23T01:36:39.575Z,3.83
2018-06-23T01:39:10.186Z,3.93
2018-06-23T01:41:38.720Z,3.50
2018-06-23T01:44:07.277Z,3.40
2018-06-23T01:46:35.768Z,3.50
2018-06-23T01:49:04.528Z,3.60
2018-06-23T01:51:33.107Z,3.30
2018-06-23T01:54:01.563Z,3.40
2018-06-23T01:56:30.081Z,2.90
2018-06-23T01:58:58.553Z,3.07
2018-06-23T02:01:27.024Z,3.73
2018-06-23T02:03:56.202Z,3.73
2018-06-23T02:06:24.683Z,3.30
2018-06-23T02:08:53.230Z,3.60
2018-06-23T02:11:21.806Z,3.70
2018-06-23T02:13:54.466Z,4.00
2018-06-23T02:16:28.078Z,3.80
2018-06-23T02:19:01.967Z,3.87
2018-06-23T02:21:35.698Z,3.90
2018-06-23T02:24:10.224Z,3.77
2018-06-23T02:26:44.242Z,4.17
2018-06-23T02:29:18.141Z,3.53
2018-06-23T02:31:51.963Z,4.03
2018-06-23T02:34:25.915Z,4.63
2018-06-23T02:36:54.450Z,3.63
2018-06-23T02:39:22.903Z,4.43
2018-06-23T02:41:51.410Z,3.33
2018-06-23T02:44:19.920Z,4.20
2018-06-23T02:46:48.511Z,3.77
2018-06-23T02:49:17.034Z,4.40
2018-06-23T02:51:45.510Z,3.63
2018-06-23T02:54:13.997Z,3.70
2018-06-23T02:56:42.583Z,3.30
2018-06-23T02:59:11.059Z,3.70
2018-06-23T03:01:39.524Z,3.97
2018-06-23T03:04:08.071Z,4.07
2018-06-23T03:06:36.446Z,4.03
2018-06-23T03:09:06.658Z,3.47
2018-06-23T03:11:35.175Z,3.80
2018-06-23T03:14:03.789Z,3.73
2018-06-23T03:16:32.485Z,3.77
2018-06-23T03:19:01.008Z,3.40
2018-06-23T03:21:29.467Z,3.87
2018-06-23T03:23:58.024Z,3.77
2018-06-23T03:26:26.531Z,4.03
2018-06-23T03:28:54.992Z,3.77
2018-06-23T03:31:23.478Z,3.93
2018-06-23T03:33:52.052Z,4.30
2018-06-23T03:36:20.556Z,3.87
2018-06-23T03:38:49.220Z,4.67
2018-06-23T03:41:17.692Z,4.60
2018-06-23T03:43:46.239Z,4.07
2018-06-23T03:46:14.696Z,3.83
2018-06-23T03:48:43.204Z,4.50
2018-06-23T03:51:11.699Z,4.30
2018-06-23T03:53:40.242Z,4.87
2018-06-23T03:56:08.861Z,4.60
2018-06-23T03:58:37.332Z,4.10
2018-06-23T04:01:07.362Z,4.40
2018-06-23T04:03:36.299Z,4.27
2018-06-23T04:06:04.882Z,4.60
2018-06-23T04:08:34.016Z,3.57
2018-06-23T04:11:02.864Z,3.57
2018-06-23T04:13:31.587Z,4.23
2018-06-23T04:16:00.311Z,4.50
2018-06-23T04:18:28.879Z,4.37
2018-06-23T04:20:57.334Z,3.97
2018-06-23T04:23:25.893Z,3.90
2018-06-23T04:25:54.438Z,4.20
2018-06-23T04:28:22.942Z,3.37
2018-06-23T04:30:51.102Z,4.00
2018-06-23T04:33:19.612Z,4.47
2018-06-23T04:35:48.169Z,4.43
2018-06-23T04:38:16.791Z,4.90
2018-06-23T04:40:45.246Z,4.27
2018-06-23T04:43:13.731Z,3.80
2018-06-23T04:45:42.254Z,4.37
2018-06-23T04:48:10.740Z,4.13
2018-06-23T04:50:39.250Z,3.73
2018-06-23T04:53:07.745Z,4.57
2018-06-23T04:55:36.214Z,4.40
2018-06-23T04:58:04.860Z,4.63
2018-06-23T05:00:33.388Z,4.67
2018-06-23T05:03:01.862Z,4.37
2018-06-23T05:05:30.339Z,4.43
2018-06-23T05:07:58.838Z,3.93
2018-06-23T05:10:27.352Z,4.70
2018-06-23T05:12:55.864Z,4.07
2018-06-23T05:15:24.427Z,4.13
2018-06-23T05:17:52.710Z,4.60
2018-06-23T05:20:21.272Z,4.20
2018-06-23T05:22:49.715Z,4.13
2018-06-23T05:25:18.202Z,4.50
2018-06-23T05:27:46.672Z,4.07
2018-06-23T05:30:15.203Z,5.00
2018-06-23T05:32:43.690Z,4.70
2018-06-23T05:35:12.238Z,5.00
2018-06-23T05:37:41.018Z,5.30
2018-06-23T05:40:09.477Z,4.53
2018-06-23T05:42:38.055Z,4.90
2018-06-23T05:45:06.531Z,5.87
2018-06-23T05:47:35.088Z,5.20
2018-06-23T05:50:03.671Z,4.80
2018-06-23T05:52:32.202Z,4.60
2018-06-23T05:55:00.681Z,4.40
2018-06-23T05:57:29.150Z,5.40
2018-06-23T05:59:57.626Z,4.40
2018-06-23T06:02:25.905Z,4.70
2018-06-23T06:04:54.435Z,4.70
2018-06-23T06:07:22.596Z,5.00
2018-06-23T06:09:51.077Z,5.00
2018-06-23T06:12:19.576Z,5.53
2018-06-23T06:14:48.079Z,5.30
2018-06-23T06:17:30.342Z,4.87
2018-06-23T06:20:02.030Z,5.60
2018-06-23T06:22:32.310Z,5.23
2018-06-23T06:25:01.066Z,6.20
2018-06-23T06:27:30.191Z,6.17
2018-06-23T06:29:59.302Z,4.93
2018-06-23T06:32:28.359Z,6.37
2018-06-23T06:34:57.192Z,5.80
2018-06-23T06:37:25.394Z,5.50
2018-06-23T06:39:53.894Z,5.77
2018-06-23T06:42:22.530Z,5.80
2018-06-23T06:44:51.046Z,5.03
2018-06-23T06:47:20.247Z,5.10
2018-06-23T06:49:48.803Z,4.90
2018-06-23T06:52:17.024Z,4.70
2018-06-23T06:54:45.818Z,5.33
2018-06-23T06:57:14.369Z,5.60
2018-06-23T06:59:42.878Z,5.43
2018-06-23T07:02:11.373Z,5.30
2018-06-23T07:04:39.989Z,5.10
2018-06-23T07:07:08.434Z,5.57
2018-06-23T07:09:37.004Z,4.73
2018-06-23T07:12:05.502Z,5.20
2018-06-23T07:14:33.969Z,4.23
2018-06-23T07:17:02.506Z,4.83
2018-06-23T07:19:30.724Z,4.90
2018-06-23T07:21:59.229Z,4.83
2018-06-23T07:24:27.734Z,4.50
2018-06-23T07:26:56.360Z,4.60
2018-06-23T07:29:24.839Z,6.83
2018-06-23T07:31:53.399Z,5.53
2018-06-23T07:34:21.995Z,4.80
2018-06-23T07:36:50.597Z,4.80
2018-06-23T07:39:18.777Z,5.20
2018-06-23T07:41:47.375Z,5.00
2018-06-23T07:44:15.565Z,6.40
2018-06-23T07:46:44.034Z,6.33
2018-06-23T07:49:12.602Z,5.10
2018-06-23T07:51:41.073Z,5.83
2018-06-23T07:54:09.289Z,6.53
2018-06-23T07:56:41.782Z,5.40
2018-06-23T07:59:10.219Z,4.73
2018-06-23T09:26:36.483Z,5.23
2018-06-23T09:29:04.961Z,4.17
2018-06-23T09:31:33.955Z,3.67
2018-06-23T09:34:02.679Z,4.00
2018-06-23T09:36:31.437Z,3.37
2018-06-23T09:39:00.075Z,4.20
2018-06-23T09:41:28.390Z,3.87
2018-06-23T09:43:57.069Z,4.10
2018-06-23T09:46:25.374Z,3.60
2018-06-23T09:48:54.290Z,3.97
2018-06-23T09:51:23.011Z,3.70
2018-06-23T09:53:51.289Z,3.77
2018-06-23T09:56:20.590Z,4.30
2018-06-23T09:58:49.239Z,3.60
2018-06-23T10:01:17.859Z,3.27
2018-06-23T10:03:46.478Z,3.13
2018-06-23T10:06:14.836Z,3.50
2018-06-23T10:08:43.593Z,4.13
2018-06-23T10:11:12.253Z,4.00
2018-06-23T10:13:40.953Z,4.00
2018-06-23T10:16:09.621Z,3.73
2018-06-23T10:18:38.324Z,3.97
2018-06-23T10:21:06.589Z,4.30
2018-06-23T10:23:35.311Z,4.73
2018-06-23T10:26:03.997Z,5.63
2018-06-23T10:28:33.106Z,4.73
2018-06-23T10:31:01.445Z,5.10
2018-06-23T10:33:29.753Z,4.00
2018-06-23T10:35:58.352Z,5.73
2018-06-23T10:38:26.687Z,4.60
2018-06-23T10:40:55.298Z,3.70
2018-06-23T10:43:23.940Z,3.90
2018-06-23T10:45:52.559Z,4.60
2018-06-23T10:48:21.272Z,4.60
2018-06-23T10:50:49.886Z,4.17
2018-06-23T10:53:18.775Z,4.70
2018-06-23T10:55:47.417Z,3.90
2018-06-23T10:58:16.067Z,4.37
2018-06-23T11:00:44.773Z,3.80
2018-06-23T11:03:13.419Z,3.80
2018-06-23T11:05:42.029Z,3.77
2018-06-23T11:08:10.656Z,3.37
2018-06-23T11:10:39.287Z,4.20
2018-06-23T11:13:07.946Z,3.80
2018-06-23T11:15:36.259Z,3.63
2018-06-23T11:18:04.936Z,3.90
2018-06-23T11:20:33.295Z,4.20
2018-06-23T11:23:02.063Z,3.73
2018-06-23T11:25:30.847Z,3.80
2018-06-23T11:27:59.500Z,4.07
2018-06-23T11:30:27.800Z,3.90
2018-06-23T11:32:56.491Z,3.57
2018-06-23T11:35:25.142Z,5.23
2018-06-23T11:37:53.723Z,3.77
2018-06-23T11:40:22.080Z,4.60
2018-06-23T11:42:50.755Z,4.37
2018-06-23T11:45:19.128Z,4.57
2018-06-23T11:47:47.777Z,3.07
2018-06-23T11:50:16.527Z,3.50
2018-06-23T11:52:44.915Z,4.33
2018-06-23T11:55:13.303Z,3.50
2018-06-23T11:57:41.715Z,3.83
2018-06-23T12:00:10.118Z,3.93
2018-06-23T12:02:38.477Z,3.90
2018-06-23T12:05:06.849Z,3.40
2018-06-23T12:07:35.201Z,3.83
2018-06-23T12:10:03.680Z,3.87
2018-06-23T12:12:32.047Z,3.37
2018-06-23T12:15:00.443Z,3.50
2018-06-23T12:17:28.832Z,3.97
2018-06-23T12:19:57.278Z,3.73
2018-06-23T12:22:25.880Z,4.20
2018-06-23T12:24:54.353Z,4.10
2018-06-23T12:27:23.194Z,4.30
2018-06-23T12:29:51.641Z,5.20
2018-06-23T12:32:20.174Z,4.90
2018-06-23T12:34:48.616Z,4.20
2018-06-23T12:37:17.085Z,4.20
2018-06-23T12:39:45.518Z,4.17
2018-06-23T12:42:13.934Z,4.63
2018-06-23T12:44:42.398Z,3.17
2018-06-23T12:47:12.155Z,3.90
2018-06-23T12:49:40.562Z,4.47
2018-06-23T12:52:08.906Z,4.10
2018-06-23T12:54:37.336Z,4.63
2018-06-23T12:57:05.723Z,5.20
2018-06-23T12:59:34.177Z,4.50
2018-06-23T13:02:02.575Z,3.73
2018-06-23T13:04:30.969Z,3.83
2018-06-23T13:06:59.315Z,2.93
2018-06-23T13:09:27.746Z,3.77
2018-06-23T13:11:56.143Z,4.03
2018-06-23T13:14:24.743Z,4.17
2018-06-23T13:16:53.175Z,4.83
2018-06-23T13:19:21.661Z,4.77
2018-06-23T13:21:50.106Z,4.30
2018-06-23T13:24:18.523Z,4.63
2018-06-23T13:26:46.907Z,4.97
2018-06-23T13:29:15.316Z,4.40
2018-06-23T13:31:43.720Z,4.10
2018-06-23T13:34:12.169Z,6.93
2018-06-23T13:36:40.619Z,4.70
2018-06-23T13:39:09.839Z,4.53
2018-06-23T13:41:38.302Z,4.30
2018-06-23T13:44:06.803Z,4.17
2018-06-23T13:46:35.232Z,4.33
2018-06-23T13:49:03.645Z,4.43
2018-06-23T13:51:32.031Z,4.63
2018-06-23T13:54:00.424Z,4.60
2018-06-23T13:56:28.881Z,4.30
2018-06-23T13:58:57.279Z,4.27
2018-06-23T14:01:25.664Z,4.23
2018-06-23T14:03:54.044Z,4.20
2018-06-23T14:06:22.438Z,3.90
2018-06-23T14:08:50.817Z,3.83
2018-06-23T14:11:19.255Z,3.80
2018-06-23T14:13:47.613Z,4.30
2018-06-23T14:16:16.007Z,3.33
2018-06-23T14:18:44.379Z,3.20
2018-06-23T14:21:12.823Z,3.90
2018-06-23T14:23:41.273Z,3.77
2018-06-23T14:26:09.713Z,3.77
2018-06-23T14:28:38.019Z,3.40
2018-06-23T14:31:06.667Z,3.30
2018-06-23T14:33:35.118Z,3.17
2018-06-23T14:36:03.589Z,3.60
2018-06-23T14:38:31.951Z,3.00
2018-06-23T14:41:00.390Z,3.53
2018-06-23T14:43:28.776Z,2.73
2018-06-23T14:45:57.278Z,3.00
2018-06-23T14:48:25.762Z,2.90
2018-06-23T14:50:54.186Z,2.80
2018-06-23T14:53:22.652Z,2.60
2018-06-23T14:55:51.046Z,2.90
2018-06-23T14:58:19.461Z,2.63
2018-06-23T15:00:47.888Z,2.67
2018-06-23T15:03:16.250Z,2.80
2018-06-23T15:05:44.666Z,3.27
2018-06-23T15:08:18.721Z,2.73
2018-06-23T15:10:52.709Z,2.53
2018-06-23T15:13:21.622Z,3.00
2018-06-23T15:15:50.026Z,2.63
2018-06-23T15:18:18.497Z,3.40
2018-06-23T15:20:46.912Z,3.00
2018-06-23T15:23:15.467Z,3.37
2018-06-23T15:25:43.847Z,3.10
2018-06-23T15:28:12.324Z,2.83
2018-06-23T15:30:40.712Z,3.40
2018-06-23T15:33:09.114Z,3.33
2018-06-23T15:35:37.496Z,3.00
2018-06-23T15:38:06.095Z,3.20
2018-06-23T15:40:34.511Z,3.20
2018-06-23T15:43:02.892Z,3.40
2018-06-23T15:45:31.286Z,3.17
2018-06-23T15:48:00.587Z,7.27
2018-06-23T15:50:29.035Z,3.90
2018-06-23T15:52:57.516Z,3.03
2018-06-23T15:55:25.939Z,2.83
2018-06-23T15:57:54.416Z,2.90
2018-06-23T16:00:22.804Z,3.37
2018-06-23T16:02:51.327Z,3.00
2018-06-23T16:05:19.758Z,2.20
2018-06-23T16:07:48.173Z,2.50
2018-06-23T16:10:20.051Z,2.83
2018-06-23T16:12:48.492Z,3.37
2018-06-23T16:15:17.397Z,3.93
2018-06-23T16:17:46.324Z,3.27
2018-06-23T16:20:15.287Z,2.60
2018-06-23T16:22:44.358Z,3.10
2018-06-23T16:25:12.727Z,2.90
2018-06-23T16:27:41.133Z,3.60
2018-06-23T16:30:09.540Z,2.63
2018-06-23T16:32:38.002Z,3.50
2018-06-23T16:35:06.471Z,3.27
2018-06-23T16:37:35.154Z,2.67
2018-06-23T16:40:03.571Z,3.10
2018-06-23T16:42:31.949Z,4.27
2018-06-23T16:45:00.527Z,3.53
2018-06-23T16:47:29.140Z,4.27
2018-06-23T16:49:57.622Z,3.03
2018-06-23T16:52:26.132Z,3.17
2018-06-23T16:56:23.815Z,2.90
2018-06-23T16:58:52.382Z,3.33
2018-06-23T17:01:20.752Z,3.20
2018-06-23T17:03:49.245Z,3.87
2018-06-23T17:06:17.618Z,3.40
2018-06-23T17:08:45.994Z,3.20
2018-06-23T17:11:14.463Z,3.07
2018-06-23T17:13:42.848Z,3.30
2018-06-23T17:16:11.410Z,3.20
2018-06-23T17:18:49.785Z,3.00
2018-06-23T17:21:21.284Z,3.60
2018-06-23T17:23:50.047Z,3.53
2018-06-23T17:26:18.376Z,2.90
2018-06-23T17:28:46.821Z,3.53
2018-06-23T17:31:15.221Z,3.53
2018-06-23T17:33:43.682Z,3.40
2018-06-23T17:36:12.051Z,3.57
2018-06-23T17:38:40.552Z,4.10
2018-06-23T17:41:08.916Z,3.50
2018-06-23T17:43:37.304Z,4.40
2018-06-23T17:46:05.651Z,3.87
2018-06-23T17:48:34.088Z,2.97
2018-06-23T17:51:02.475Z,3.03
2018-06-23T17:53:30.900Z,3.10
2018-06-23T17:55:59.410Z,2.67
2018-06-23T17:58:27.832Z,2.83
2018-06-23T18:00:56.158Z,2.57
2018-06-23T18:03:24.557Z,2.60
2018-06-23T18:05:52.932Z,2.20
2018-06-23T18:08:21.359Z,2.30
2018-06-23T18:10:49.785Z,2.20
2018-06-23T18:13:18.241Z,2.37
2018-06-23T18:15:46.719Z,2.10
2018-06-23T18:18:15.172Z,2.07
2018-06-23T18:20:43.813Z,2.30
2018-06-23T18:23:12.242Z,2.63
2018-06-23T18:25:41.154Z,1.93
2018-06-23T18:28:09.474Z,2.50
2018-06-23T18:30:37.885Z,2.63
2018-06-23T18:33:06.290Z,2.37
2018-06-23T18:35:34.735Z,3.00
2018-06-23T18:38:03.162Z,3.43
2018-06-23T18:40:31.977Z,2.70
2018-06-23T18:43:00.427Z,3.00
2018-06-23T18:45:29.485Z,3.63
2018-06-23T18:47:58.096Z,2.60
2018-06-23T18:50:26.550Z,1.90
2018-06-23T18:52:54.950Z,2.03
2018-06-23T18:55:23.433Z,3.03
2018-06-23T18:57:51.834Z,2.90
2018-06-23T19:00:20.218Z,2.60
2018-06-23T19:02:49.540Z,2.00
2018-06-23T19:05:17.968Z,2.70
2018-06-23T19:07:46.325Z,2.30
2018-06-23T19:10:14.710Z,2.33
2018-06-23T19:12:43.120Z,2.20
2018-06-23T19:15:11.425Z,2.20
2018-06-23T19:17:39.744Z,2.27
2018-06-23T19:20:08.094Z,2.00
2018-06-23T19:22:36.453Z,2.10
2018-06-23T19:25:04.925Z,2.93
2018-06-23T19:27:33.382Z,2.57
2018-06-23T19:30:01.766Z,3.30
2018-06-23T19:32:30.229Z,3.23
2018-06-23T19:34:58.607Z,2.97
2018-06-23T19:37:26.990Z,2.33
2018-06-23T19:39:55.277Z,2.87
2018-06-23T19:42:23.846Z,2.63
2018-06-23T19:44:52.388Z,2.53
2018-06-23T19:47:21.471Z,2.80
2018-06-23T19:49:50.457Z,2.10
2018-06-23T19:52:18.808Z,2.90
2018-06-23T19:54:47.166Z,2.30
2018-06-23T19:57:15.896Z,2.93
2018-06-23T19:59:44.278Z,3.87
2018-06-23T20:02:13.019Z,3.40
2018-06-23T20:04:41.351Z,2.50
2018-06-23T20:07:09.653Z,2.70
2018-06-23T20:09:37.967Z,2.80
2018-06-23T20:12:06.370Z,2.97
2018-06-23T20:14:35.067Z,2.80
2018-06-23T20:17:03.852Z,2.83
2018-06-23T20:19:32.230Z,2.60
2018-06-23T20:22:01.030Z,2.93
2018-06-23T20:24:29.790Z,2.40
2018-06-23T20:26:58.137Z,2.97
2018-06-23T20:29:26.668Z,3.33
2018-06-23T20:31:55.016Z,4.03
2018-06-23T20:34:23.809Z,3.37
2018-06-23T20:36:52.154Z,2.83
2018-06-23T20:39:20.861Z,2.90
2018-06-23T20:41:49.191Z,3.00
2018-06-23T20:44:17.884Z,2.70
2018-06-23T20:46:46.252Z,3.03
2018-06-23T20:49:14.665Z,2.87
2018-06-23T20:51:43.478Z,3.17
2018-06-23T20:54:12.181Z,3.40
2018-06-23T20:56:40.539Z,3.13
2018-06-23T20:59:08.906Z,3.20
2018-06-23T21:01:37.823Z,3.73
2018-06-23T21:04:06.129Z,3.87
2018-06-23T21:06:34.596Z,3.50
2018-06-23T21:09:03.487Z,3.73
2018-06-23T21:11:32.240Z,4.07
2018-06-23T21:14:00.674Z,3.77
2018-06-23T21:16:29.449Z,4.43
2018-06-23T21:18:58.162Z,3.90
2018-06-23T21:21:26.866Z,4.13
2018-06-23T21:23:55.226Z,3.57
2018-06-23T21:26:24.108Z,2.90
2018-06-23T21:28:52.418Z,3.27
2018-06-23T21:31:20.789Z,3.50
2018-06-23T21:33:49.463Z,3.60
2018-06-23T21:36:18.247Z,4.07
2018-06-23T21:38:46.554Z,4.30
2018-06-23T21:41:15.191Z,3.70
2018-06-23T21:43:43.529Z,4.23
2018-06-23T21:46:12.243Z,3.90
2018-06-23T21:48:40.974Z,3.90
2018-06-23T21:51:09.749Z,4.00
2018-06-23T21:53:38.488Z,4.83
2018-06-23T21:56:06.770Z,4.77
2018-06-23T21:58:35.117Z,3.80
2018-06-23T22:01:03.463Z,4.43
2018-06-23T22:03:32.205Z,4.20
2018-06-23T22:06:00.911Z,4.10
2018-06-23T22:08:29.611Z,4.63
2018-06-23T22:10:58.316Z,4.97
2018-06-23T22:13:26.695Z,5.73
2018-06-23T22:15:55.375Z,4.30
2018-06-23T22:18:24.164Z,4.80
2018-06-23T22:20:52.873Z,4.63
2018-06-23T22:23:21.589Z,4.77
2018-06-23T22:25:49.934Z,5.00
2018-06-23T22:28:18.318Z,4.90
2018-06-23T22:30:46.606Z,4.80
2018-06-23T22:33:14.959Z,4.70
2018-06-23T22:35:43.721Z,5.33
2018-06-23T22:38:12.539Z,4.83
2018-06-23T22:40:41.238Z,4.37
2018-06-23T22:43:09.876Z,4.80
2018-06-23T22:45:38.265Z,4.37
2018-06-23T22:48:06.622Z,4.87
2018-06-23T22:50:34.945Z,4.93
2018-06-23T22:53:03.382Z,5.30
2018-06-23T22:55:32.083Z,5.00
2018-06-23T22:58:00.421Z,4.80
2018-06-23T23:00:29.075Z,5.30
2018-06-23T23:02:57.755Z,4.50
2018-06-23T23:05:26.439Z,5.10
2018-06-23T23:07:55.157Z,4.00
2018-06-23T23:10:23.903Z,4.13
2018-06-23T23:12:52.306Z,3.93
2018-06-23T23:15:20.955Z,4.23
2018-06-23T23:17:49.302Z,4.40
2018-06-23T23:20:18.041Z,4.33
2018-06-23T23:22:46.786Z,3.90
2018-06-23T23:25:15.471Z,4.63
2018-06-23T23:27:44.158Z,4.67
2018-06-23T23:30:12.917Z,4.27
2018-06-23T23:32:41.788Z,4.20
2018-06-23T23:35:10.449Z,5.13
2018-06-23T23:37:39.216Z,4.00
2018-06-23T23:40:07.651Z,3.87
2018-06-23T23:42:35.953Z,4.30
2018-06-23T23:45:04.772Z,4.10
2018-06-23T23:47:33.523Z,4.30
2018-06-23T23:50:02.244Z,3.93
2018-06-23T23:52:30.975Z,4.40
2018-06-23T23:54:59.661Z,4.23
2018-06-23T23:57:27.962Z,4.80
2018-06-23T23:59:56.715Z,4.23
